Time;durP1;ratioP1;P1;durP2;ratioP2;P2;SDS_P1;SDS_P2;PMS_P1;PMS_P2;Temp;Humidity;BMP_temperature;BMP_pressure;BME280_temperature;BME280_humidity;BME280_pressure;Samples;Min_cycle;Max_cycle;Signal;HPM_P1;HPM_P2
2023/07/19 00:00:06;;;;;;;7.05;3.03;;;;;;;;;;5074736;28;20055;-62
2023/07/19 00:02:31;;;;;;;5.05;2.60;;;;;;;;;;5072688;28;20075;-64
2023/07/19 00:05:00;;;;;;;7.68;3.58;;;;;;;;;;5033725;28;20064;-61
2023/07/19 00:07:37;;;;;;;5.95;3.13;;;;;;;;;;5038967;28;20509;-62
2023/07/19 00:10:04;;;;;;;4.63;3.00;;;;;;;;;;5033449;28;20029;-61
2023/07/19 00:12:33;;;;;;;6.57;3.38;;;;;;;;;;5048773;28;20036;-63
2023/07/19 00:14:59;;;;;;;9.32;3.40;;;;;;;;;;5034385;28;20116;-60
2023/07/19 00:17:25;;;;;;;8.90;3.42;;;;;;;;;;5049799;28;20117;-62
2023/07/19 00:19:53;;;;;;;5.38;3.30;;;;;;;;;;5038145;28;20091;-62
2023/07/19 00:22:18;;;;;;;8.75;3.30;;;;;;;;;;5055633;28;20485;-62
2023/07/19 00:24:43;;;;;;;6.65;3.40;;;;;;;;;;5045718;28;20025;-61
2023/07/19 00:27:09;;;;;;;7.10;3.50;;;;;;;;;;5034815;28;20421;-61
2023/07/19 00:29:34;;;;;;;5.53;3.10;;;;;;;;;;5032468;28;20068;-65
2023/07/19 00:31:59;;;;;;;6.13;3.28;;;;;;;;;;5048091;28;20081;-61
2023/07/19 00:34:25;;;;;;;5.72;3.22;;;;;;;;;;5033886;28;20462;-61
2023/07/19 00:36:50;;;;;;;6.15;3.28;;;;;;;;;;5031643;28;20045;-64
2023/07/19 00:39:15;;;;;;;6.65;3.22;;;;;;;;;;5049645;28;20041;-61
2023/07/19 00:41:41;;;;;;;6.68;3.20;;;;;;;;;;5047094;28;20033;-61
2023/07/19 00:44:06;;;;;;;6.20;3.13;;;;;;;;;;5046958;28;20080;-61
2023/07/19 00:49:54;;;;;;;7.60;3.40;;;;;;;;;;5037809;28;20148;-63
2023/07/19 00:52:19;;;;;;;6.63;3.25;;;;;;;;;;5064518;28;20439;-61
2023/07/19 00:54:45;;;;;;;6.25;3.08;;;;;;;;;;5047533;28;20025;-61
2023/07/19 00:57:10;;;;;;;5.95;3.30;;;;;;;;;;5044703;28;20029;-61
2023/07/19 00:59:36;;;;;;;7.78;3.30;;;;;;;;;;5052565;28;20028;-64
2023/07/19 01:02:02;;;;;;;5.82;3.70;;;;;;;;;;5034855;28;20029;-62
2023/07/19 01:04:29;;;;;;;8.07;3.72;;;;;;;;;;5051269;28;20051;-61
2023/07/19 01:06:55;;;;;;;6.20;3.42;;;;;;;;;;5049613;28;20034;-65
2023/07/19 01:09:21;;;;;;;6.00;3.35;;;;;;;;;;5036997;28;20102;-62
2023/07/19 01:11:47;;;;;;;5.78;3.35;;;;;;;;;;5044990;28;20065;-62
2023/07/19 01:14:12;;;;;;;6.07;3.40;;;;;;;;;;5038925;28;20045;-62
2023/07/19 01:16:38;;;;;;;5.47;3.40;;;;;;;;;;5042983;28;20034;-62
2023/07/19 01:19:04;;;;;;;6.78;3.28;;;;;;;;;;5048551;28;20032;-62
2023/07/19 01:21:29;;;;;;;6.65;3.50;;;;;;;;;;5053100;28;20067;-61
2023/07/19 01:23:55;;;;;;;9.13;3.80;;;;;;;;;;5047840;28;20586;-61
2023/07/19 01:26:21;;;;;;;7.05;4.03;;;;;;;;;;5053367;28;20097;-61
2023/07/19 01:28:46;;;;;;;6.70;3.90;;;;;;;;;;5049952;28;20518;-63
2023/07/19 01:31:15;;;;;;;8.85;3.30;;;;;;;;;;5051602;28;20032;-61
2023/07/19 01:33:40;;;;;;;6.38;3.50;;;;;;;;;;5041939;28;20331;-63
2023/07/19 01:36:06;;;;;;;6.32;3.45;;;;;;;;;;5049221;28;20036;-61
2023/07/19 01:38:31;;;;;;;5.55;3.60;;;;;;;;;;5037686;28;20038;-60
2023/07/19 01:40:56;;;;;;;5.82;3.67;;;;;;;;;;5037289;28;20052;-61
2023/07/19 01:43:22;;;;;;;5.53;3.40;;;;;;;;;;5050482;28;20107;-61
2023/07/19 01:45:50;;;;;;;6.78;3.90;;;;;;;;;;5051071;28;20083;-61
2023/07/19 01:48:16;;;;;;;6.75;3.60;;;;;;;;;;5054505;28;20029;-62
2023/07/19 01:50:46;;;;;;;7.90;3.92;;;;;;;;;;5049298;28;20106;-62
2023/07/19 01:53:11;;;;;;;5.95;3.63;;;;;;;;;;5040493;28;20494;-61
2023/07/19 01:55:37;;;;;;;7.32;3.78;;;;;;;;;;5039098;28;20041;-64
2023/07/19 01:58:02;;;;;;;7.25;3.72;;;;;;;;;;5049194;28;20061;-61
2023/07/19 02:00:27;;;;;;;5.38;3.60;;;;;;;;;;5036064;28;20041;-61
2023/07/19 02:02:53;;;;;;;6.95;3.90;;;;;;;;;;5048533;28;20032;-63
2023/07/19 02:05:18;;;;;;;7.13;4.32;;;;;;;;;;5043758;28;20143;-61
2023/07/19 02:07:44;;;;;;;6.05;3.70;;;;;;;;;;5030560;28;20041;-62
2023/07/19 02:10:10;;;;;;;8.50;3.80;;;;;;;;;;5037501;28;20034;-62
2023/07/19 02:12:36;;;;;;;7.28;3.85;;;;;;;;;;5045266;28;20170;-64
2023/07/19 02:15:01;;;;;;;5.75;3.85;;;;;;;;;;5037138;28;20394;-61
2023/07/19 02:17:27;;;;;;;7.07;3.75;;;;;;;;;;5052324;28;20021;-61
2023/07/19 02:19:52;;;;;;;6.65;3.90;;;;;;;;;;5049621;28;20033;-62
2023/07/19 02:22:17;;;;;;;6.57;3.70;;;;;;;;;;5032215;28;20029;-62
2023/07/19 02:24:43;;;;;;;7.85;3.60;;;;;;;;;;5047833;28;20421;-62
2023/07/19 02:27:08;;;;;;;8.88;3.88;;;;;;;;;;5051922;28;20039;-61
2023/07/19 02:29:34;;;;;;;5.32;3.78;;;;;;;;;;5044305;28;20075;-61
2023/07/19 02:32:03;;;;;;;6.75;4.15;;;;;;;;;;5042996;28;20029;-61
2023/07/19 02:34:29;;;;;;;7.25;3.83;;;;;;;;;;5050910;28;20036;-61
2023/07/19 02:36:57;;;;;;;8.10;3.95;;;;;;;;;;5040043;28;20092;-61
2023/07/19 02:39:25;;;;;;;6.63;3.40;;;;;;;;;;5046885;28;20174;-60
2023/07/19 02:41:51;;;;;;;6.88;3.78;;;;;;;;;;5062076;28;20536;-61
2023/07/19 02:44:16;;;;;;;5.93;3.60;;;;;;;;;;5039833;28;20124;-61
2023/07/19 02:46:41;;;;;;;7.60;3.95;;;;;;;;;;5045733;28;20035;-64
2023/07/19 02:49:07;;;;;;;7.47;3.83;;;;;;;;;;5042887;28;20044;-61
2023/07/19 02:51:32;;;;;;;6.80;4.07;;;;;;;;;;5036470;28;20072;-62
2023/07/19 02:53:57;;;;;;;7.85;3.97;;;;;;;;;;5035965;28;20175;-61
2023/07/19 02:56:26;;;;;;;6.95;3.60;;;;;;;;;;5049482;28;20033;-61
2023/07/19 02:58:52;;;;;;;9.00;3.97;;;;;;;;;;5041349;28;20076;-61
2023/07/19 03:01:17;;;;;;;7.35;3.90;;;;;;;;;;5031517;28;20041;-61
2023/07/19 03:03:42;;;;;;;6.85;3.80;;;;;;;;;;5058062;28;20064;-64
2023/07/19 03:06:11;;;;;;;6.13;3.75;;;;;;;;;;5053213;28;20029;-61
2023/07/19 03:08:37;;;;;;;7.28;3.90;;;;;;;;;;5048776;28;20492;-61
2023/07/19 03:11:05;;;;;;;6.97;3.75;;;;;;;;;;5055115;28;20029;-62
2023/07/19 03:13:30;;;;;;;7.75;3.70;;;;;;;;;;5052713;28;20087;-61
2023/07/19 03:15:55;;;;;;;7.13;3.55;;;;;;;;;;5045774;28;20029;-62
2023/07/19 03:18:21;;;;;;;5.72;3.88;;;;;;;;;;5054785;28;20416;-61
2023/07/19 03:20:46;;;;;;;7.05;3.63;;;;;;;;;;5053832;28;20018;-62
2023/07/19 03:23:12;;;;;;;7.00;3.80;;;;;;;;;;5053898;28;20037;-62
2023/07/19 03:25:39;;;;;;;6.68;3.67;;;;;;;;;;5039173;28;20100;-61
2023/07/19 03:28:05;;;;;;;6.00;3.58;;;;;;;;;;5054179;28;20028;-61
2023/07/19 03:30:30;;;;;;;6.80;3.80;;;;;;;;;;5056641;28;20128;-61
2023/07/19 03:32:55;;;;;;;10.50;3.83;;;;;;;;;;5057049;28;20462;-62
2023/07/19 03:35:21;;;;;;;6.00;3.78;;;;;;;;;;5053825;28;20070;-67
2023/07/19 03:37:46;;;;;;;7.97;3.60;;;;;;;;;;5066544;28;20036;-61
2023/07/19 03:40:13;;;;;;;7.57;3.60;;;;;;;;;;5077881;28;20392;-61
2023/07/19 03:42:38;;;;;;;7.03;3.72;;;;;;;;;;5077970;28;20111;-60
2023/07/19 03:45:05;;;;;;;8.63;3.88;;;;;;;;;;5069154;28;20114;-60
2023/07/19 03:47:32;;;;;;;8.40;4.63;;;;;;;;;;5057818;28;20063;-61
2023/07/19 03:49:58;;;;;;;5.78;3.70;;;;;;;;;;5056954;28;20059;-60
2023/07/19 03:52:23;;;;;;;8.60;4.03;;;;;;;;;;5057661;28;20420;-60
2023/07/19 03:54:53;;;;;;;7.93;4.00;;;;;;;;;;5054556;28;20406;-60
2023/07/19 03:57:21;;;;;;;7.93;3.95;;;;;;;;;;5056802;28;20044;-61
2023/07/19 03:59:46;;;;;;;6.75;4.10;;;;;;;;;;5056666;28;20024;-61
2023/07/19 04:02:11;;;;;;;7.75;3.97;;;;;;;;;;5057707;28;20045;-61
2023/07/19 04:04:37;;;;;;;7.63;4.20;;;;;;;;;;5049185;28;20048;-61
2023/07/19 04:07:02;;;;;;;9.60;4.50;;;;;;;;;;5055314;28;20029;-61
2023/07/19 04:09:28;;;;;;;7.60;4.15;;;;;;;;;;5057988;28;20056;-60
2023/07/19 04:11:53;;;;;;;6.00;3.90;;;;;;;;;;5056916;28;20115;-60
2023/07/19 04:14:19;;;;;;;7.15;4.30;;;;;;;;;;5056037;28;20485;-61
2023/07/19 04:16:45;;;;;;;7.10;3.80;;;;;;;;;;5054758;28;20440;-60
2023/07/19 04:19:10;;;;;;;8.60;4.40;;;;;;;;;;5054077;28;20044;-60
2023/07/19 04:21:36;;;;;;;6.82;4.32;;;;;;;;;;5054609;28;20032;-60
2023/07/19 04:24:01;;;;;;;7.22;4.47;;;;;;;;;;5051282;28;20029;-60
2023/07/19 04:26:27;;;;;;;8.25;4.72;;;;;;;;;;5053981;28;20033;-61
2023/07/19 04:28:52;;;;;;;8.20;4.60;;;;;;;;;;5054008;28;20060;-62
2023/07/19 04:31:18;;;;;;;10.68;4.68;;;;;;;;;;5054411;28;20037;-60
2023/07/19 04:33:43;;;;;;;9.35;4.40;;;;;;;;;;5054730;28;20112;-60
2023/07/19 04:36:13;;;;;;;10.05;4.75;;;;;;;;;;5050076;28;20037;-60
2023/07/19 04:38:39;;;;;;;7.13;4.73;;;;;;;;;;5054359;28;20037;-60
2023/07/19 04:41:04;;;;;;;11.13;4.60;;;;;;;;;;5053377;28;20451;-60
2023/07/19 04:43:30;;;;;;;8.77;4.40;;;;;;;;;;5053733;28;20532;-60
2023/07/19 04:45:56;;;;;;;8.82;4.03;;;;;;;;;;5049325;28;20040;-60
2023/07/19 04:48:21;;;;;;;7.57;3.88;;;;;;;;;;5054270;28;20470;-60
2023/07/19 04:50:52;;;;;;;7.20;4.10;;;;;;;;;;5053660;28;20037;-61
2023/07/19 04:53:17;;;;;;;;;;;;;;;;;;5055309;28;20025;-60
2023/07/19 04:55:43;;;;;;;8.13;4.00;;;;;;;;;;5051109;28;20345;-60
2023/07/19 04:58:08;;;;;;;8.10;4.40;;;;;;;;;;5053119;28;20094;-60
2023/07/19 05:00:33;;;;;;;10.65;4.60;;;;;;;;;;5053857;28;20120;-62
2023/07/19 05:02:59;;;;;;;10.48;4.53;;;;;;;;;;5052630;28;20056;-60
2023/07/19 05:05:25;;;;;;;9.00;4.07;;;;;;;;;;5050133;28;20037;-61
2023/07/19 05:07:51;;;;;;;10.05;4.82;;;;;;;;;;5053006;28;20071;-60
2023/07/19 05:10:16;;;;;;;7.78;4.15;;;;;;;;;;5052590;28;20056;-61
2023/07/19 05:12:42;;;;;;;9.25;4.40;;;;;;;;;;5053395;28;20389;-60
2023/07/19 05:15:08;;;;;;;11.50;4.53;;;;;;;;;;5050443;28;20041;-62
2023/07/19 05:17:33;;;;;;;9.48;4.60;;;;;;;;;;5053844;28;20052;-61
2023/07/19 05:19:59;;;;;;;10.90;4.43;;;;;;;;;;5052679;28;20029;-61
2023/07/19 05:22:25;;;;;;;8.90;4.38;;;;;;;;;;5053170;28;20523;-61
2023/07/19 05:24:50;;;;;;;9.05;4.28;;;;;;;;;;5051692;28;20025;-61
2023/07/19 05:27:17;;;;;;;9.18;4.47;;;;;;;;;;5037691;28;20041;-60
2023/07/19 05:29:43;;;;;;;8.93;4.72;;;;;;;;;;5033098;28;20037;-61
2023/07/19 05:32:08;;;;;;;9.07;4.47;;;;;;;;;;5032416;28;20041;-60
2023/07/19 05:34:34;;;;;;;10.10;5.00;;;;;;;;;;5041637;28;20095;-60
2023/07/19 05:36:59;;;;;;;7.53;4.90;;;;;;;;;;5052514;28;20039;-61
2023/07/19 05:39:25;;;;;;;9.30;4.45;;;;;;;;;;5053198;28;20021;-61
2023/07/19 05:41:51;;;;;;;9.40;4.68;;;;;;;;;;5051297;28;20025;-61
2023/07/19 05:44:16;;;;;;;6.70;4.25;;;;;;;;;;5050351;28;20431;-61
2023/07/19 05:46:42;;;;;;;9.75;4.60;;;;;;;;;;5053150;28;20054;-61
2023/07/19 05:49:08;;;;;;;8.48;4.60;;;;;;;;;;5052088;28;20041;-60
2023/07/19 05:51:33;;;;;;;7.90;4.25;;;;;;;;;;5052947;28;20113;-60
2023/07/19 05:53:58;;;;;;;7.85;4.38;;;;;;;;;;5050451;28;20021;-60
2023/07/19 05:56:24;;;;;;;10.15;4.50;;;;;;;;;;5050052;28;20350;-62
2023/07/19 05:58:51;;;;;;;7.35;4.30;;;;;;;;;;5051355;28;20036;-61
2023/07/19 06:01:17;;;;;;;8.50;4.55;;;;;;;;;;5052128;28;20032;-61
2023/07/19 06:03:46;;;;;;;7.43;4.40;;;;;;;;;;5049969;28;20025;-63
2023/07/19 06:06:12;;;;;;;9.30;4.25;;;;;;;;;;5046848;28;20109;-60
2023/07/19 06:08:38;;;;;;;8.52;4.57;;;;;;;;;;5048956;28;20052;-61
2023/07/19 06:11:03;;;;;;;7.22;4.50;;;;;;;;;;5050995;28;20067;-61
2023/07/19 06:13:29;;;;;;;8.45;4.43;;;;;;;;;;5052407;28;20087;-62
2023/07/19 06:15:56;;;;;;;7.53;4.72;;;;;;;;;;5049596;28;20529;-61
2023/07/19 06:18:22;;;;;;;10.38;4.88;;;;;;;;;;5046912;28;20067;-60
2023/07/19 06:20:47;;;;;;;10.02;4.85;;;;;;;;;;5033873;28;20057;-60
2023/07/19 06:23:13;;;;;;;11.25;5.07;;;;;;;;;;5031600;28;20026;-60
2023/07/19 06:25:38;;;;;;;12.02;5.05;;;;;;;;;;5034086;28;20067;-60
2023/07/19 06:28:04;;;;;;;11.38;5.32;;;;;;;;;;5044439;28;20087;-60
2023/07/19 06:30:31;;;;;;;7.95;5.20;;;;;;;;;;5052259;28;20545;-60
2023/07/19 06:32:56;;;;;;;9.88;5.18;;;;;;;;;;5051249;28;20032;-62
2023/07/19 06:35:22;;;;;;;12.02;5.40;;;;;;;;;;5051925;28;20032;-61
2023/07/19 06:37:47;;;;;;;11.98;5.47;;;;;;;;;;5049604;28;20447;-61
2023/07/19 06:40:13;;;;;;;12.45;6.00;;;;;;;;;;5050589;28;20017;-62
2023/07/19 06:42:38;;;;;;;11.40;6.05;;;;;;;;;;5053006;28;20056;-61
2023/07/19 06:45:04;;;;;;;11.00;5.80;;;;;;;;;;5044852;28;20041;-62
2023/07/19 06:47:30;;;;;;;14.48;6.75;;;;;;;;;;5032137;28;20025;-65
2023/07/19 06:49:56;;;;;;;18.10;6.60;;;;;;;;;;5031615;28;20421;-66
2023/07/19 06:52:23;;;;;;;15.90;6.68;;;;;;;;;;5031968;28;20036;-62
2023/07/19 06:54:48;;;;;;;11.35;6.05;;;;;;;;;;5034530;28;20029;-63
2023/07/19 06:57:14;;;;;;;16.58;6.45;;;;;;;;;;5049675;28;20036;-64
2023/07/19 06:59:39;;;;;;;12.57;6.28;;;;;;;;;;5052074;28;20029;-62
2023/07/19 07:02:05;;;;;;;13.93;6.15;;;;;;;;;;5051253;28;20033;-62
2023/07/19 07:04:31;;;;;;;13.45;6.45;;;;;;;;;;5037337;28;20084;-63
2023/07/19 07:06:56;;;;;;;18.88;6.85;;;;;;;;;;5031047;28;20030;-64
2023/07/19 07:09:22;;;;;;;13.40;6.47;;;;;;;;;;5031638;28;20485;-62
2023/07/19 07:11:47;;;;;;;12.43;6.20;;;;;;;;;;5030479;28;20032;-63
2023/07/19 07:14:13;;;;;;;15.93;6.28;;;;;;;;;;5038470;28;20450;-63
2023/07/19 07:16:39;;;;;;;13.25;6.05;;;;;;;;;;5050864;28;20120;-62
2023/07/19 07:19:04;;;;;;;15.20;6.28;;;;;;;;;;5051150;28;20120;-62
2023/07/19 07:21:30;;;;;;;10.05;6.03;;;;;;;;;;5051697;28;20061;-63
2023/07/19 07:23:55;;;;;;;15.07;6.03;;;;;;;;;;5050113;28;20392;-63
2023/07/19 07:26:21;;;;;;;12.43;5.78;;;;;;;;;;5051109;28;20454;-62
2023/07/19 07:28:46;;;;;;;10.98;5.80;;;;;;;;;;5051529;28;20025;-62
2023/07/19 07:31:12;;;;;;;14.18;5.93;;;;;;;;;;5050723;28;20025;-62
2023/07/19 07:33:38;;;;;;;13.10;5.60;;;;;;;;;;5045411;28;20075;-62
2023/07/19 07:36:04;;;;;;;10.52;5.30;;;;;;;;;;5029544;28;20075;-62
2023/07/19 07:38:29;;;;;;;8.48;4.40;;;;;;;;;;5030902;28;20436;-62
2023/07/19 07:41:02;;;;;;;10.60;4.40;;;;;;;;;;5049268;28;20033;-62
2023/07/19 07:43:30;;;;;;;8.75;3.42;;;;;;;;;;5051355;28;20052;-62
2023/07/19 07:45:56;;;;;;;6.43;3.03;;;;;;;;;;5051502;28;20104;-62
2023/07/19 07:48:22;;;;;;;5.93;2.85;;;;;;;;;;5049674;28;20049;-62
2023/07/19 07:50:51;;;;;;;8.63;2.70;;;;;;;;;;5050251;28;20045;-61
2023/07/19 07:53:18;;;;;;;7.22;2.70;;;;;;;;;;5052939;28;20111;-61
2023/07/19 07:55:43;;;;;;;5.15;2.55;;;;;;;;;;5055150;28;20036;-61
2023/07/19 07:58:10;;;;;;;8.20;2.90;;;;;;;;;;5054078;28;20021;-61
2023/07/19 08:00:35;;;;;;;5.75;2.55;;;;;;;;;;5038251;28;20091;-61
2023/07/19 08:03:01;;;;;;;6.68;2.78;;;;;;;;;;5034132;28;20038;-61
2023/07/19 08:05:27;;;;;;;6.45;3.20;;;;;;;;;;5035077;28;20025;-61
2023/07/19 08:07:52;;;;;;;9.77;3.00;;;;;;;;;;5036381;28;20030;-61
2023/07/19 08:10:18;;;;;;;7.00;3.20;;;;;;;;;;5051549;28;20670;-61
2023/07/19 08:12:43;;;;;;;8.32;3.00;;;;;;;;;;5054650;28;20056;-61
2023/07/19 08:15:11;;;;;;;9.95;3.20;;;;;;;;;;5052624;28;20056;-61
2023/07/19 08:17:37;;;;;;;9.13;3.05;;;;;;;;;;5053332;28;20065;-61
2023/07/19 08:20:08;;;;;;;5.20;2.45;;;;;;;;;;5051379;28;20034;-61
2023/07/19 08:22:35;;;;;;;7.38;2.80;;;;;;;;;;5054953;28;20033;-61
2023/07/19 08:25:00;;;;;;;8.50;2.72;;;;;;;;;;5054192;28;20536;-61
2023/07/19 08:27:26;;;;;;;6.95;2.40;;;;;;;;;;5054348;28;20111;-61
2023/07/19 08:29:52;;;;;;;7.65;2.75;;;;;;;;;;5053671;28;20108;-61
2023/07/19 08:32:18;;;;;;;7.40;2.50;;;;;;;;;;5053718;28;20112;-61
2023/07/19 08:34:44;;;;;;;7.20;2.35;;;;;;;;;;5058119;28;20131;-61
2023/07/19 08:37:10;;;;;;;6.13;2.63;;;;;;;;;;5053690;28;20036;-61
2023/07/19 08:39:35;;;;;;;6.97;2.42;;;;;;;;;;5052282;28;20114;-61
2023/07/19 08:42:02;;;;;;;7.00;2.60;;;;;;;;;;5052731;28;20044;-61
2023/07/19 08:44:28;;;;;;;8.50;2.88;;;;;;;;;;5053403;28;20080;-61
2023/07/19 08:46:55;;;;;;;6.38;2.22;;;;;;;;;;5054298;28;20029;-61
2023/07/19 08:49:20;;;;;;;5.15;2.35;;;;;;;;;;5052136;28;20166;-61
2023/07/19 08:51:46;;;;;;;5.72;2.20;;;;;;;;;;5054109;28;20358;-61
2023/07/19 08:54:12;;;;;;;9.07;2.40;;;;;;;;;;5053207;28;20036;-61
2023/07/19 08:56:38;;;;;;;8.23;2.50;;;;;;;;;;5054331;28;20025;-61
2023/07/19 08:59:05;;;;;;;8.13;2.42;;;;;;;;;;5050387;28;20115;-62
2023/07/19 09:01:31;;;;;;;6.75;2.30;;;;;;;;;;5053990;28;20037;-61
2023/07/19 09:03:56;;;;;;;7.95;2.47;;;;;;;;;;5053163;28;20029;-61
2023/07/19 09:06:24;;;;;;;6.72;2.40;;;;;;;;;;5053009;28;20035;-62
2023/07/19 09:08:51;;;;;;;7.00;2.53;;;;;;;;;;5051995;28;20047;-63
2023/07/19 09:11:23;;;;;;;4.55;2.50;;;;;;;;;;5052904;28;20474;-61
2023/07/19 09:13:56;;;;;;;7.78;2.92;;;;;;;;;;5053549;28;20558;-61
2023/07/19 09:16:32;;;;;;;8.48;2.90;;;;;;;;;;5052796;28;20032;-61
2023/07/19 09:19:01;;;;;;;5.80;2.70;;;;;;;;;;5052363;28;20481;-61
2023/07/19 09:21:53;;;;;;;9.32;2.67;;;;;;;;;;5052162;28;20051;-61
2023/07/19 09:24:18;;;;;;;7.43;2.55;;;;;;;;;;5049350;28;20040;-61
2023/07/19 09:26:48;;;;;;;4.63;2.40;;;;;;;;;;5053173;28;20035;-61
2023/07/19 09:29:13;;;;;;;6.03;2.50;;;;;;;;;;5050556;28;20470;-62
2023/07/19 09:31:58;;;;;;;8.10;2.60;;;;;;;;;;5052057;28;20029;-61
2023/07/19 09:34:28;;;;;;;6.07;2.47;;;;;;;;;;5052356;28;20024;-62
2023/07/19 09:36:54;;;;;;;4.82;2.40;;;;;;;;;;5052002;28;20021;-61
2023/07/19 09:39:21;;;;;;;4.78;2.47;;;;;;;;;;5050500;28;20393;-62
2023/07/19 09:41:46;;;;;;;4.80;2.50;;;;;;;;;;5052539;28;20527;-61
2023/07/19 09:44:16;;;;;;;8.90;2.60;;;;;;;;;;5050469;28;20048;-61
2023/07/19 09:46:44;;;;;;;6.07;2.45;;;;;;;;;;5053068;28;20021;-61
2023/07/19 09:49:09;;;;;;;5.47;2.60;;;;;;;;;;5051281;28;20036;-61
2023/07/19 09:51:37;;;;;;;8.55;2.70;;;;;;;;;;5051333;28;20025;-61
2023/07/19 09:54:08;;;;;;;6.78;2.65;;;;;;;;;;5052576;28;20032;-61
2023/07/19 09:56:33;;;;;;;5.28;2.20;;;;;;;;;;5051635;28;20036;-61
2023/07/19 09:58:59;;;;;;;6.18;2.40;;;;;;;;;;5049897;28;20509;-61
2023/07/19 10:01:24;;;;;;;7.18;2.58;;;;;;;;;;5051129;28;20560;-61
2023/07/19 10:03:50;;;;;;;6.05;2.50;;;;;;;;;;5052675;28;20503;-61
2023/07/19 10:06:15;;;;;;;5.35;2.30;;;;;;;;;;5051672;28;20028;-62
2023/07/19 10:08:41;;;;;;;6.65;2.58;;;;;;;;;;5049887;28;20449;-61
2023/07/19 10:11:07;;;;;;;6.68;2.50;;;;;;;;;;5031675;28;20045;-60
2023/07/19 10:13:52;;;;;;;5.60;2.67;;;;;;;;;;5032282;28;20079;-61
2023/07/19 10:16:23;;;;;;;8.93;2.80;;;;;;;;;;5030881;28;20119;-61
2023/07/19 10:19:07;;;;;;;8.43;2.70;;;;;;;;;;5047160;28;20125;-62
2023/07/19 10:21:35;;;;;;;6.70;2.63;;;;;;;;;;5032607;28;20524;-61
2023/07/19 10:24:06;;;;;;;6.82;2.90;;;;;;;;;;5034001;28;20033;-61
2023/07/19 10:26:35;;;;;;;6.05;2.65;;;;;;;;;;5033405;28;20060;-62
2023/07/19 10:29:01;;;;;;;9.27;2.90;;;;;;;;;;5042716;28;20058;-62
2023/07/19 10:31:26;;;;;;;5.95;2.88;;;;;;;;;;5049245;28;20489;-62
2023/07/19 10:33:58;;;;;;;9.25;3.50;;;;;;;;;;5051072;28;20037;-61
2023/07/19 10:36:24;;;;;;;6.32;3.15;;;;;;;;;;5051429;28;20037;-61
2023/07/19 10:38:49;;;;;;;6.95;2.90;;;;;;;;;;5046609;28;20021;-61
2023/07/19 10:41:17;;;;;;;7.35;3.20;;;;;;;;;;5048563;28;20531;-61
2023/07/19 10:43:42;;;;;;;5.97;2.83;;;;;;;;;;5050995;28;20102;-62
2023/07/19 10:46:08;;;;;;;6.97;3.20;;;;;;;;;;5051743;28;20029;-62
2023/07/19 10:48:36;;;;;;;7.28;3.10;;;;;;;;;;5050202;28;20520;-62
2023/07/19 10:51:09;;;;;;;6.65;3.00;;;;;;;;;;5051732;28;20024;-61
2023/07/19 10:53:41;;;;;;;7.13;2.90;;;;;;;;;;5051711;28;20036;-63
2023/07/19 10:56:07;;;;;;;9.07;2.95;;;;;;;;;;5051785;28;20108;-62
2023/07/19 10:58:33;;;;;;;5.60;2.90;;;;;;;;;;5047757;28;20108;-62
2023/07/19 11:00:58;;;;;;;6.15;2.88;;;;;;;;;;5049616;28;20060;-61
2023/07/19 11:03:26;;;;;;;4.93;2.40;;;;;;;;;;5049337;28;20412;-61
2023/07/19 11:05:52;;;;;;;8.20;2.63;;;;;;;;;;5051684;28;20086;-61
2023/07/19 11:08:22;;;;;;;9.77;2.80;;;;;;;;;;5049229;28;20029;-61
2023/07/19 11:10:51;;;;;;;7.95;2.90;;;;;;;;;;5047593;28;20025;-61
2023/07/19 11:13:18;;;;;;;8.32;2.80;;;;;;;;;;5049261;28;20025;-61
2023/07/19 11:15:52;;;;;;;5.10;2.70;;;;;;;;;;5049915;28;20136;-62
2023/07/19 11:18:38;;;;;;;11.88;3.00;;;;;;;;;;5050900;28;20075;-61
2023/07/19 11:21:03;;;;;;;5.40;2.70;;;;;;;;;;5051665;28;20025;-61
2023/07/19 11:23:30;;;;;;;7.25;3.08;;;;;;;;;;5049289;28;20063;-61
2023/07/19 11:26:06;;;;;;;6.90;3.17;;;;;;;;;;5050588;28;20362;-61
2023/07/19 11:28:44;;;;;;;6.07;3.25;;;;;;;;;;5055046;28;20718;-62
2023/07/19 11:31:25;;;;;;;5.35;2.88;;;;;;;;;;5055455;28;20033;-60
2023/07/19 11:33:57;;;;;;;5.88;2.90;;;;;;;;;;5054613;28;20359;-61
2023/07/19 11:36:23;;;;;;;6.63;2.80;;;;;;;;;;5054479;28;20021;-61
2023/07/19 11:38:49;;;;;;;8.20;3.33;;;;;;;;;;5054323;28;20036;-61
2023/07/19 11:41:17;;;;;;;7.30;3.10;;;;;;;;;;5054295;28;20024;-61
2023/07/19 11:43:45;;;;;;;6.82;3.30;;;;;;;;;;5052803;28;20052;-61
2023/07/19 11:46:13;;;;;;;8.25;3.15;;;;;;;;;;5053478;28;20131;-62
2023/07/19 11:48:39;;;;;;;8.80;3.00;;;;;;;;;;5054424;28;20029;-61
2023/07/19 11:51:07;;;;;;;7.25;3.00;;;;;;;;;;5055246;28;20036;-62
2023/07/19 11:53:33;;;;;;;8.90;3.10;;;;;;;;;;5053272;28;20029;-62
2023/07/19 11:55:58;;;;;;;5.82;2.60;;;;;;;;;;5053531;28;20039;-61
2023/07/19 11:58:26;;;;;;;8.18;2.92;;;;;;;;;;5054627;28;20044;-62
2023/07/19 12:00:51;;;;;;;6.40;2.90;;;;;;;;;;5054826;28;20479;-61
2023/07/19 12:03:20;;;;;;;5.40;2.63;;;;;;;;;;5052932;28;20473;-61
2023/07/19 12:05:45;;;;;;;7.10;2.60;;;;;;;;;;5051698;28;20453;-63
2023/07/19 12:08:10;;;;;;;5.35;2.63;;;;;;;;;;5054869;28;20033;-61
2023/07/19 12:10:36;;;;;;;6.43;2.95;;;;;;;;;;5053859;28;20033;-61
2023/07/19 12:13:02;;;;;;;4.63;2.70;;;;;;;;;;5055058;28;20377;-62
2023/07/19 12:15:28;;;;;;;11.95;3.08;;;;;;;;;;5058155;28;20028;-62
2023/07/19 12:17:54;;;;;;;6.60;2.97;;;;;;;;;;5056386;28;20033;-62
2023/07/19 12:20:20;;;;;;;6.18;2.75;;;;;;;;;;5052862;28;20510;-62
2023/07/19 12:22:47;;;;;;;7.47;2.90;;;;;;;;;;5054804;28;20108;-62
2023/07/19 12:25:13;;;;;;;4.85;2.63;;;;;;;;;;5054430;28;20033;-61
2023/07/19 12:27:38;;;;;;;8.48;2.70;;;;;;;;;;5048832;28;20107;-62
2023/07/19 12:30:05;;;;;;;5.07;2.30;;;;;;;;;;5054482;28;20045;-62
2023/07/19 12:32:31;;;;;;;6.28;2.70;;;;;;;;;;5053663;28;20045;-61
2023/07/19 12:34:56;;;;;;;6.25;2.80;;;;;;;;;;5054489;28;20037;-62
2023/07/19 12:37:22;;;;;;;6.70;2.42;;;;;;;;;;5051747;28;20100;-62
2023/07/19 12:39:49;;;;;;;6.10;2.50;;;;;;;;;;5052420;28;20040;-62
2023/07/19 12:42:15;;;;;;;8.23;2.65;;;;;;;;;;5054157;28;20052;-62
2023/07/19 12:44:41;;;;;;;6.10;2.30;;;;;;;;;;5053914;28;20048;-62
2023/07/19 12:47:08;;;;;;;6.45;2.50;;;;;;;;;;5052201;28;20112;-61
2023/07/19 12:49:33;;;;;;;6.60;3.00;;;;;;;;;;5053136;28;20847;-62
2023/07/19 12:51:59;;;;;;;6.65;3.15;;;;;;;;;;5054219;28;20107;-62
2023/07/19 12:54:28;;;;;;;5.10;2.17;;;;;;;;;;5051286;28;20119;-62
2023/07/19 12:56:54;;;;;;;4.20;2.35;;;;;;;;;;5053916;28;20036;-61
2023/07/19 12:59:19;;;;;;;3.22;1.88;;;;;;;;;;5053107;28;20036;-62
2023/07/19 13:01:48;;;;;;;3.38;1.65;;;;;;;;;;5053988;28;20516;-62
2023/07/19 13:04:17;;;;;;;5.35;2.00;;;;;;;;;;5051511;28;20124;-62
2023/07/19 13:06:42;;;;;;;5.35;1.70;;;;;;;;;;5052893;28;20074;-62
2023/07/19 13:09:07;;;;;;;2.60;1.70;;;;;;;;;;5052617;28;20029;-62
2023/07/19 13:11:39;;;;;;;4.60;1.70;;;;;;;;;;5052980;28;20070;-63
2023/07/19 13:14:06;;;;;;;2.30;1.50;;;;;;;;;;5052580;28;20128;-63
2023/07/19 13:16:32;;;;;;;4.00;1.50;;;;;;;;;;5050059;28;20044;-62
2023/07/19 13:18:57;;;;;;;4.03;1.80;;;;;;;;;;5052347;28;20060;-62
2023/07/19 13:21:23;;;;;;;4.28;1.67;;;;;;;;;;5052723;28;20135;-62
2023/07/19 13:23:48;;;;;;;3.88;1.80;;;;;;;;;;5052643;28;20451;-61
2023/07/19 13:26:14;;;;;;;4.60;2.05;;;;;;;;;;5053067;28;20033;-61
2023/07/19 13:28:40;;;;;;;6.55;2.13;;;;;;;;;;5052745;28;20029;-62
2023/07/19 13:31:06;;;;;;;2.78;1.80;;;;;;;;;;5053380;28;20158;-62
2023/07/19 13:33:32;;;;;;;6.47;1.92;;;;;;;;;;5050221;28;20689;-62
2023/07/19 13:35:57;;;;;;;7.80;2.20;;;;;;;;;;5052745;28;20033;-61
2023/07/19 13:38:23;;;;;;;4.57;1.92;;;;;;;;;;5052441;28;20040;-62
2023/07/19 13:40:49;;;;;;;4.65;2.08;;;;;;;;;;5053234;28;20431;-62
2023/07/19 13:43:14;;;;;;;6.85;2.50;;;;;;;;;;5052708;28;20049;-62
2023/07/19 13:45:40;;;;;;;5.28;2.25;;;;;;;;;;5050208;28;20071;-62
2023/07/19 13:48:09;;;;;;;4.32;1.90;;;;;;;;;;5053150;28;20036;-62
2023/07/19 13:50:35;;;;;;;5.22;2.05;;;;;;;;;;5051872;28;20131;-62
2023/07/19 13:53:03;;;;;;;5.43;2.13;;;;;;;;;;5051828;28;20108;-62
2023/07/19 13:55:30;;;;;;;4.13;2.00;;;;;;;;;;5050398;28;20362;-62
2023/07/19 13:57:55;;;;;;;4.57;2.00;;;;;;;;;;5052988;28;20053;-62
2023/07/19 14:00:21;;;;;;;5.35;3.08;;;;;;;;;;5052213;28;20067;-62
2023/07/19 14:02:46;;;;;;;7.93;1.90;;;;;;;;;;5052466;28;20025;-62
2023/07/19 14:05:12;;;;;;;7.45;2.20;;;;;;;;;;5048646;28;20032;-62
2023/07/19 14:07:38;;;;;;;3.95;1.63;;;;;;;;;;5052592;28;20047;-62
2023/07/19 14:10:05;;;;;;;4.32;2.10;;;;;;;;;;5053026;28;20041;-62
2023/07/19 14:12:31;;;;;;;5.22;1.88;;;;;;;;;;5051892;28;20035;-62
2023/07/19 14:14:57;;;;;;;3.72;1.90;;;;;;;;;;5051689;28;20033;-62
2023/07/19 14:17:26;;;;;;;4.70;1.98;;;;;;;;;;5050336;28;20116;-62
2023/07/19 14:19:52;;;;;;;3.03;1.70;;;;;;;;;;5052399;28;20121;-61
2023/07/19 14:22:18;;;;;;;5.10;2.00;;;;;;;;;;5052327;28;20145;-62
2023/07/19 14:24:44;;;;;;;4.18;1.95;;;;;;;;;;5050285;28;20458;-62
2023/07/19 14:27:10;;;;;;;2.47;1.80;;;;;;;;;;5034673;28;20063;-63
2023/07/19 14:29:35;;;;;;;3.05;1.63;;;;;;;;;;5051517;28;20167;-62
2023/07/19 14:32:01;;;;;;;6.93;1.58;;;;;;;;;;5052190;28;20029;-62
2023/07/19 14:34:28;;;;;;;3.72;1.23;;;;;;;;;;5050311;28;20037;-62
2023/07/19 14:36:53;;;;;;;2.20;1.45;;;;;;;;;;5049426;28;20036;-62
2023/07/19 14:39:20;;;;;;;2.75;1.20;;;;;;;;;;5052323;28;20059;-62